Time;durP1;ratioP1;P1;durP2;ratioP2;P2;SDS_P1;SDS_P2;PMS_P1;PMS_P2;Temp;Humidity;BMP_temperature;BMP_pressure;BME280_temperature;BME280_humidity;BME280_pressure;Samples;Min_cycle;Max_cycle;Signal;HPM_P1;HPM_P2
2023/05/26 00:01:30;;;;;;;23.50;4.30;;;;;;;9.06;90.80;102032.17;106928;1259;59699;-67
2023/05/26 00:03:57;;;;;;;26.30;5.40;;;;;;;9.04;90.74;102030.58;107122;1256;60944;-67
2023/05/26 00:06:23;;;;;;;27.20;5.50;;;;;;;9.02;90.89;102034.80;107498;1257;74345;-67
2023/05/26 00:08:50;;;;;;;23.90;5.10;;;;;;;8.99;90.82;102035.70;106838;1259;71978;-64
2023/05/26 00:11:17;;;;;;;23.00;5.30;;;;;;;8.96;90.72;102037.50;106977;1259;72855;-65
2023/05/26 00:13:43;;;;;;;31.20;5.60;;;;;;;8.94;90.99;102038.08;107154;1258;60537;-66
2023/05/26 00:16:10;;;;;;;28.60;5.70;;;;;;;8.92;91.10;102038.96;107131;1257;59264;-67
2023/05/26 00:18:36;;;;;;;23.10;4.70;;;;;;;8.90;90.83;102039.34;107032;1259;60470;-65
2023/05/26 00:21:03;;;;;;;24.40;4.70;;;;;;;8.87;90.94;102036.70;107051;1257;70386;-65
2023/05/26 00:23:30;;;;;;;26.90;4.90;;;;;;;8.83;91.10;102036.88;107449;1257;72729;-65
2023/05/26 00:25:56;;;;;;;23.40;5.10;;;;;;;8.79;91.08;102038.80;106884;1256;59864;-66
2023/05/26 00:28:23;;;;;;;23.30;5.30;;;;;;;8.76;91.42;102037.67;107247;1258;61467;-65
2023/05/26 00:30:49;;;;;;;23.70;5.30;;;;;;;8.72;91.79;102042.83;107167;1258;60496;-63
2023/05/26 00:33:16;;;;;;;19.70;4.60;;;;;;;8.68;91.40;102042.39;106838;1257;70260;-65
2023/05/26 00:35:42;;;;;;;22.90;5.50;;;;;;;8.64;91.96;102042.57;106913;1261;72768;-64
2023/05/26 00:38:09;;;;;;;26.80;5.50;;;;;;;8.61;91.74;102043.73;107029;1258;60563;-66
2023/05/26 00:40:36;;;;;;;19.90;4.30;;;;;;;8.56;92.26;102046.54;107273;1257;60945;-64
2023/05/26 00:43:03;;;;;;;23.10;5.30;;;;;;;8.52;92.69;102044.23;107473;1259;73939;-65
2023/05/26 00:45:29;;;;;;;21.50;5.20;;;;;;;8.48;93.08;102050.60;106937;1259;59215;-66
2023/05/26 00:47:56;;;;;;;30.00;6.50;;;;;;;8.44;93.24;102049.88;106990;1260;71707;-65
2023/05/26 00:50:22;;;;;;;27.60;5.20;;;;;;;8.40;93.55;102050.33;107265;1257;60553;-66
2023/05/26 00:52:49;;;;;;;25.60;5.90;;;;;;;8.37;93.26;102050.26;107060;1257;60257;-65
2023/05/26 00:55:17;;;;;;;29.10;5.50;;;;;;;8.35;93.15;102048.67;106922;1260;72234;-64
2023/05/26 00:57:44;;;;;;;21.90;4.70;;;;;;;8.32;93.71;102050.64;107092;1260;72635;-63
2023/05/26 01:00:12;;;;;;;26.30;5.00;;;;;;;8.29;94.31;102049.86;107090;1259;71696;-63
2023/05/26 01:02:39;;;;;;;28.60;5.40;;;;;;;8.26;93.94;102045.48;108463;1257;60908;-65
2023/05/26 01:05:08;;;;;;;30.50;5.30;;;;;;;8.24;94.34;102044.61;108761;1258;60387;-65
2023/05/26 01:07:36;;;;;;;24.10;5.10;;;;;;;8.22;94.42;102046.21;108291;1256;74946;-64
2023/05/26 01:10:04;;;;;;;23.60;5.70;;;;;;;8.20;94.35;102048.81;106977;1260;71150;-65
2023/05/26 01:12:38;;;;;;;22.30;5.50;;;;;;;8.19;94.40;102043.13;108327;1258;71776;-66
2023/05/26 01:15:13;;;;;;;25.90;4.70;;;;;;;8.17;94.25;102046.27;107032;1258;60330;-65
2023/05/26 01:18:03;;;;;;;21.90;5.10;;;;;;;8.13;94.53;102046.89;107075;1260;60362;-64
2023/05/26 01:20:38;;;;;;;26.30;5.80;;;;;;;8.11;94.50;102045.28;107117;1259;73778;-67
2023/05/26 01:23:17;;;;;;;27.80;6.00;;;;;;;8.09;94.66;102045.13;107162;1258;68673;-64
2023/05/26 01:26:10;;;;;;;27.20;5.10;;;;;;;8.06;94.38;102045.52;107003;1257;72136;-65
2023/05/26 01:28:38;;;;;;;32.30;5.90;;;;;;;8.04;94.60;102052.25;107037;1260;60442;-68
2023/05/26 01:31:05;;;;;;;23.50;5.80;;;;;;;8.01;95.06;102052.88;107057;1256;60416;-65
2023/05/26 01:33:33;;;;;;;29.40;5.80;;;;;;;7.98;94.95;102048.00;107190;1258;74525;-65
2023/05/26 01:36:00;;;;;;;26.70;5.60;;;;;;;7.94;95.24;102049.16;106865;1256;71230;-67
2023/05/26 01:38:27;;;;;;;27.80;6.00;;;;;;;7.91;95.11;102047.98;106933;1256;70998;-67
2023/05/26 01:41:03;;;;;;;30.10;5.80;;;;;;;7.89;95.37;102052.21;107081;1258;61375;-65
2023/05/26 01:43:41;;;;;;;29.90;5.90;;;;;;;7.86;95.86;102051.39;108868;1259;59463;-65
2023/05/26 01:46:14;;;;;;;26.00;5.40;;;;;;;7.85;96.24;102053.65;108854;1257;72328;-66
2023/05/26 01:48:44;;;;;;;28.90;6.30;;;;;;;7.82;95.67;102057.18;106282;1259;69642;-66
2023/05/26 01:51:16;;;;;;;29.50;6.30;;;;;;;7.80;96.17;102060.16;106287;1258;72678;-63
2023/05/26 01:53:44;;;;;;;23.80;5.80;;;;;;;7.79;95.70;102060.77;106211;1257;60374;-65
2023/05/26 01:56:13;;;;;;;27.50;6.20;;;;;;;7.78;95.68;102057.31;106112;1262;60446;-66
2023/05/26 01:58:40;;;;;;;23.50;5.40;;;;;;;7.77;95.53;102057.80;106681;1260;73886;-66
2023/05/26 02:01:07;;;;;;;28.30;5.80;;;;;;;7.74;95.46;102056.96;106571;1262;72136;-66
2023/05/26 02:03:34;;;;;;;24.20;5.30;;;;;;;7.70;95.97;102059.34;106030;1258;72543;-66
2023/05/26 02:06:00;;;;;;;24.80;5.80;;;;;;;7.67;95.96;102063.66;106062;1258;60445;-65
2023/05/26 02:08:27;;;;;;;31.40;5.70;;;;;;;7.64;96.50;102061.27;106105;1262;60548;-65
2023/05/26 02:10:54;;;;;;;30.90;5.80;;;;;;;7.61;96.35;102059.23;106465;1257;74069;-64
2023/05/26 02:13:20;;;;;;;26.30;5.70;;;;;;;7.58;96.50;102065.45;106179;1260;69941;-66
2023/05/26 02:15:47;;;;;;;25.40;5.80;;;;;;;7.53;97.10;102064.58;106610;1257;72708;-66
2023/05/26 02:18:15;;;;;;;25.60;6.40;;;;;;;7.50;97.31;102064.29;106383;1260;61119;-66
2023/05/26 02:20:42;;;;;;;24.60;5.20;;;;;;;7.47;97.05;102061.89;106244;1261;61569;-64
2023/05/26 02:23:09;;;;;;;23.90;5.70;;;;;;;7.45;97.48;102063.16;106109;1260;392066;-64
2023/05/26 02:25:35;;;;;;;27.30;5.60;;;;;;;7.41;98.15;102063.65;106201;1257;69502;-64
2023/05/26 02:28:02;;;;;;;24.50;5.40;;;;;;;7.38;98.43;102064.40;106306;1260;72287;-66
2023/05/26 02:30:29;;;;;;;35.20;6.10;;;;;;;7.33;99.08;102064.22;106295;1262;60850;-65
2023/05/26 02:32:56;;;;;;;31.90;6.60;;;;;;;7.30;98.70;102060.39;106404;1262;60536;-66
2023/05/26 02:35:22;;;;;;;27.50;6.10;;;;;;;7.29;99.11;102065.26;106662;1257;73073;-64
2023/05/26 02:37:49;;;;;;;28.80;6.30;;;;;;;7.27;99.59;102065.75;106117;1262;69160;-64
2023/05/26 02:40:16;;;;;;;33.10;6.40;;;;;;;7.28;99.50;102067.10;106119;1260;60892;-67
2023/05/26 02:42:42;;;;;;;35.70;7.30;;;;;;;7.27;99.76;102073.14;106039;1260;60232;-64
2023/05/26 02:45:09;;;;;;;31.30;5.60;;;;;;;7.26;99.77;102076.17;106460;1257;60669;-66
2023/05/26 02:47:37;;;;;;;29.70;5.90;;;;;;;7.24;99.89;102074.77;106275;1259;73940;-67
2023/05/26 02:50:05;;;;;;;30.10;6.00;;;;;;;7.23;100.00;102073.44;106015;1262;70435;-64
2023/05/26 02:52:32;;;;;;;29.30;5.70;;;;;;;7.21;99.94;102077.10;106519;1259;72682;-69
2023/05/26 02:54:58;;;;;;;33.50;5.80;;;;;;;7.21;100.00;102074.33;106382;1262;61178;-65
2023/05/26 02:57:25;;;;;;;33.40;5.70;;;;;;;7.20;100.00;102076.33;106141;1257;60965;-67
2023/05/26 02:59:52;;;;;;;31.60;5.90;;;;;;;7.19;100.00;102085.91;106225;1262;72357;-65
2023/05/26 03:02:19;;;;;;;31.40;5.90;;;;;;;7.17;100.00;102081.63;106094;1262;60317;-66
2023/05/26 03:04:46;;;;;;;27.70;6.40;;;;;;;7.16;100.00;102081.89;106249;1262;71493;-66
2023/05/26 03:07:12;;;;;;;27.30;6.30;;;;;;;7.15;100.00;102084.77;106497;1262;60297;-65
2023/05/26 03:09:39;;;;;;;25.00;5.30;;;;;;;7.14;100.00;102083.63;106656;1262;60464;-64
2023/05/26 03:12:06;;;;;;;30.40;6.00;;;;;;;7.14;99.99;102081.71;106222;1262;73595;-66
2023/05/26 03:14:36;;;;;;;24.20;5.50;;;;;;;7.14;99.92;102086.30;106022;1262;71195;-67
2023/05/26 03:17:03;;;;;;;32.10;6.00;;;;;;;7.14;99.70;102089.65;106583;1260;71303;-66
2023/05/26 03:19:30;;;;;;;29.80;6.10;;;;;;;7.13;99.96;102085.81;106270;1259;60472;-65
2023/05/26 03:21:56;;;;;;;24.50;6.20;;;;;;;7.13;99.58;102090.92;106363;1262;60482;-67
2023/05/26 03:24:43;;;;;;;28.30;6.40;;;;;;;7.12;99.62;102094.52;106488;1262;73974;-66
2023/05/26 03:27:10;;;;;;;24.30;6.20;;;;;;;7.12;99.76;102095.08;106465;1257;69749;-64
2023/05/26 03:29:36;;;;;;;33.50;6.30;;;;;;;7.10;99.61;102098.35;106177;1260;72785;-69
2023/05/26 03:32:03;;;;;;;30.70;6.20;;;;;;;7.10;99.77;102100.52;106210;1262;60420;-66
2023/05/26 03:34:30;;;;;;;24.50;5.60;;;;;;;7.09;99.86;102106.00;106184;1262;60822;-63
2023/05/26 03:36:56;;;;;;;27.50;6.20;;;;;;;7.10;99.73;102106.65;106359;1257;73429;-65
2023/05/26 03:39:23;;;;;;;28.90;5.80;;;;;;;7.09;99.89;102108.68;106096;1261;60378;-65
2023/05/26 03:41:50;;;;;;;29.30;6.60;;;;;;;7.07;99.97;102107.77;106336;1262;71360;-65
2023/05/26 03:44:19;;;;;;;28.40;6.10;;;;;;;7.07;99.96;102111.49;106236;1258;60451;-68
2023/05/26 03:46:46;;;;;;;25.00;6.90;;;;;;;7.08;99.86;102112.27;106439;1262;60496;-65
2023/05/26 03:49:13;;;;;;;26.90;5.90;;;;;;;7.07;100.00;102114.43;106189;1258;72503;-66
2023/05/26 03:51:39;;;;;;;27.60;6.40;;;;;;;7.07;100.00;102113.05;106076;1262;69019;-65
2023/05/26 03:54:06;;;;;;;25.70;6.10;;;;;;;7.08;99.99;102117.02;106253;1260;72775;-67
2023/05/26 03:56:33;;;;;;;37.00;6.60;;;;;;;7.10;99.99;102120.73;106024;1267;60161;-64
2023/05/26 03:58:59;;;;;;;31.30;6.50;;;;;;;7.11;99.98;102116.39;106479;1258;60559;-65
2023/05/26 04:01:26;;;;;;;24.20;6.10;;;;;;;7.14;99.93;102117.23;106459;1262;72924;-64
2023/05/26 04:03:53;;;;;;;27.70;6.50;;;;;;;7.18;99.83;102120.65;106138;1257;70312;-65
2023/05/26 04:06:20;;;;;;;23.30;6.40;;;;;;;7.20;100.00;102116.60;106130;1262;73567;-66
2023/05/26 04:08:47;;;;;;;28.70;6.20;;;;;;;7.23;99.84;102113.08;106168;1262;60548;-64
2023/05/26 04:11:15;;;;;;;27.00;6.10;;;;;;;7.25;99.96;102120.10;106375;1262;60959;-65
2023/05/26 04:13:42;;;;;;;30.00;6.00;;;;;;;7.30;99.84;102122.73;106124;1262;72763;-65
2023/05/26 04:16:08;;;;;;;32.60;6.20;;;;;;;7.33;99.69;102125.95;106201;1262;60530;-65
2023/05/26 04:18:40;;;;;;;26.70;6.60;;;;;;;7.38;99.37;102124.36;106544;1262;71200;-64
2023/05/26 04:21:08;;;;;;;24.40;5.70;;;;;;;7.45;99.31;102129.45;106463;1260;60821;-64
2023/05/26 04:23:34;;;;;;;30.60;6.20;;;;;;;7.51;98.95;102131.10;106396;1257;60732;-65
2023/05/26 04:26:03;;;;;;;25.20;6.30;;;;;;;7.57;98.55;102136.61;106061;1262;72503;-65
2023/05/26 04:28:29;;;;;;;22.70;6.00;;;;;;;7.60;98.23;102135.04;106081;1262;69343;-65
2023/05/26 04:30:56;;;;;;;26.80;6.00;;;;;;;7.62;97.93;102134.48;106406;1257;71689;-65
2023/05/26 04:33:23;;;;;;;25.20;6.60;;;;;;;7.67;97.94;102135.35;106348;1262;60840;-61
2023/05/26 04:35:50;;;;;;;25.50;5.90;;;;;;;7.72;97.90;102137.75;106628;1259;60448;-64
2023/05/26 04:38:17;;;;;;;23.10;5.70;;;;;;;7.77;97.65;102135.60;106214;1258;73998;-62
2023/05/26 04:40:44;;;;;;;26.80;5.80;;;;;;;7.81;97.11;102136.90;106357;1261;70422;-64
2023/05/26 04:43:12;;;;;;;28.00;6.00;;;;;;;7.87;96.70;102137.09;106996;1258;71603;-60
2023/05/26 04:45:40;;;;;;;24.50;6.50;;;;;;;7.91;96.33;102143.47;106392;1262;60426;-64
2023/05/26 04:48:08;;;;;;;26.20;5.90;;;;;;;7.97;96.25;102148.30;106475;1258;60441;-61
2023/05/26 04:50:39;;;;;;;25.80;6.10;;;;;;;8.03;95.89;102150.27;106559;1263;73351;-63
2023/05/26 04:53:08;;;;;;;29.00;6.30;;;;;;;8.08;95.69;102151.45;106877;1262;70937;-66
2023/05/26 04:55:35;;;;;;;26.00;6.00;;;;;;;8.12;94.99;102157.48;106393;1257;72785;-63
2023/05/26 04:58:03;;;;;;;26.30;5.80;;;;;;;8.15;94.36;102157.44;106315;1257;60390;-65
2023/05/26 05:00:31;;;;;;;24.50;5.40;;;;;;;8.19;93.93;102163.64;106335;1258;60543;-63
2023/05/26 05:02:58;;;;;;;26.60;6.20;;;;;;;8.22;93.50;102161.30;106658;1257;72658;-64
2023/05/26 05:05:25;;;;;;;23.50;5.50;;;;;;;8.27;93.00;102160.35;106419;1262;69632;-64
2023/05/26 05:07:51;;;;;;;25.80;5.40;;;;;;;8.37;93.01;102159.16;106463;1260;72864;-64
2023/05/26 05:10:18;;;;;;;23.10;5.10;;;;;;;8.50;92.97;102158.68;106466;1262;61218;-64
2023/05/26 05:12:45;;;;;;;22.60;4.80;;;;;;;8.63;92.49;102164.31;106263;1258;60390;-65
2023/05/26 05:15:12;;;;;;;19.50;4.70;;;;;;;8.74;91.08;102164.13;106448;1257;73348;-63
2023/05/26 05:17:38;;;;;;;22.70;5.10;;;;;;;8.82;90.27;102168.41;106375;1257;69315;-60
2023/05/26 05:20:07;;;;;;;20.00;5.10;;;;;;;8.90;90.05;102170.55;106117;1261;72681;-65
2023/05/26 05:22:42;;;;;;;20.00;4.80;;;;;;;9.00;89.18;102172.61;106425;1257;61730;-64
2023/05/26 05:25:08;;;;;;;22.40;5.60;;;;;;;9.03;88.18;102172.54;106538;1257;60457;-65
2023/05/26 05:27:35;;;;;;;21.40;4.90;;;;;;;9.07;88.19;102176.27;106199;1257;71716;-64
2023/05/26 05:30:02;;;;;;;22.00;5.50;;;;;;;9.14;88.28;102181.11;106845;1261;69384;-66
2023/05/26 05:32:29;;;;;;;22.90;5.50;;;;;;;9.20;87.31;102183.05;106581;1261;71353;-64
2023/05/26 05:34:55;;;;;;;22.50;5.20;;;;;;;9.25;86.85;102183.02;106680;1259;60406;-65
2023/05/26 05:37:22;;;;;;;21.00;4.70;;;;;;;9.33;86.84;102180.59;106424;1257;61019;-62
2023/05/26 05:39:48;;;;;;;24.70;5.60;;;;;;;9.38;86.33;102178.19;106225;1260;61025;-61
2023/05/26 05:42:15;;;;;;;21.00;4.80;;;;;;;9.43;86.03;102181.72;106139;1257;70765;-63
2023/05/26 05:44:41;;;;;;;19.60;4.90;;;;;;;9.45;85.43;102183.47;106635;1257;59759;-62
2023/05/26 05:47:08;;;;;;;21.10;4.90;;;;;;;9.44;84.79;102191.64;106503;1257;60459;-64
2023/05/26 05:49:35;;;;;;;21.20;4.60;;;;;;;9.46;85.08;102193.75;106199;1259;60387;-65
2023/05/26 05:52:01;;;;;;;17.40;4.40;;;;;;;9.52;84.94;102188.65;106252;1263;73911;-64
2023/05/26 05:54:28;;;;;;;17.50;4.70;;;;;;;9.60;84.55;102184.58;106092;1257;69957;-65
2023/05/26 05:56:55;;;;;;;23.40;5.30;;;;;;;9.68;84.13;102186.02;106354;1260;72684;-63
2023/05/26 05:59:21;;;;;;;16.40;4.70;;;;;;;9.76;83.06;102187.67;106895;1257;61351;-63
2023/05/26 06:01:48;;;;;;;24.00;7.30;;;;;;;9.82;82.37;102191.04;106047;1258;60897;-62
2023/05/26 06:04:15;;;;;;;22.80;6.50;;;;;;;9.93;82.15;102193.29;106927;1257;73839;-65
2023/05/26 06:06:41;;;;;;;17.70;5.10;;;;;;;10.03;81.73;102196.81;106213;1257;71789;-64
2023/05/26 06:09:08;;;;;;;21.70;5.20;;;;;;;10.12;81.36;102200.23;106400;1261;59575;-63
2023/05/26 06:11:34;;;;;;;19.60;5.00;;;;;;;10.22;81.05;102198.64;106623;1257;60629;-63
2023/05/26 06:14:01;;;;;;;19.70;4.70;;;;;;;10.32;80.51;102196.91;106145;1263;61633;-65
2023/05/26 06:17:19;;;;;;;20.30;4.90;;;;;;;10.39;78.65;102197.70;104743;1292;599497;-66
2023/05/26 06:19:45;;;;;;;18.10;4.40;;;;;;;10.42;78.85;102199.04;105646;1267;60067;-65
2023/05/26 06:22:12;;;;;;;20.70;4.50;;;;;;;10.54;79.11;102205.70;106082;1267;59677;-64
2023/05/26 06:24:38;;;;;;;18.90;5.40;;;;;;;10.64;78.21;102202.58;106004;1267;60871;-63
2023/05/26 06:27:05;;;;;;;18.70;4.80;;;;;;;10.73;77.65;102201.08;106030;1267;59359;-64
2023/05/26 06:29:32;;;;;;;53.50;27.30;;;;;;;10.79;77.12;102201.60;105528;1267;59466;-63
2023/05/26 06:31:58;;;;;;;18.30;4.80;;;;;;;10.90;77.62;102205.48;105832;1265;236813;-65
2023/05/26 06:34:25;;;;;;;22.20;5.10;;;;;;;11.01;76.69;102208.08;106112;1266;59235;-66
2023/05/26 06:36:51;;;;;;;21.20;4.40;;;;;;;11.13;76.95;102208.55;106058;1265;59343;-66
2023/05/26 06:39:18;;;;;;;19.90;5.00;;;;;;;11.22;75.29;102210.89;106386;1266;59359;-64
2023/05/26 06:41:44;;;;;;;21.20;4.60;;;;;;;11.25;74.73;102213.25;106006;1265;59749;-61
2023/05/26 06:44:11;;;;;;;21.30;6.80;;;;;;;11.29;74.09;102214.34;106045;1266;60148;-64
2023/05/26 06:46:37;;;;;;;18.00;5.50;;;;;;;11.34;74.07;102215.75;106398;1265;59702;-65
2023/05/26 06:49:04;;;;;;;17.90;4.20;;;;;;;11.43;74.27;102213.19;106164;1266;72370;-63
2023/05/26 06:51:30;;;;;;;18.90;4.10;;;;;;;11.53;73.50;102216.50;105818;1266;59615;-63
2023/05/26 06:53:57;;;;;;;22.60;6.50;;;;;;;11.59;73.38;102219.48;105802;1265;60592;-65
2023/05/26 06:56:26;;;;;;;15.90;5.10;;;;;;;11.65;72.63;102216.81;105966;1262;60019;-65
2023/05/26 06:58:52;;;;;;;19.40;4.50;;;;;;;11.76;73.29;102218.64;106005;1263;61054;-63
2023/05/26 07:01:19;;;;;;;19.00;5.50;;;;;;;11.90;73.23;102218.25;106328;1263;73074;-63
2023/05/26 07:03:46;;;;;;;22.20;5.10;;;;;;;12.04;72.64;102221.17;106108;1263;70999;-64
2023/05/26 07:06:12;;;;;;;18.30;5.60;;;;;;;12.17;71.59;102224.48;105955;1263;59693;-63
2023/05/26 07:08:39;;;;;;;18.10;4.60;;;;;;;12.26;71.05;102225.27;106383;1263;60075;-61
2023/05/26 07:11:06;;;;;;;17.60;4.40;;;;;;;12.37;71.02;102225.45;105952;1262;60066;-64
2023/05/26 07:13:33;;;;;;;21.90;7.20;;;;;;;12.49;70.36;102229.19;105996;1262;73077;-62
2023/05/26 07:15:59;;;;;;;21.10;6.70;;;;;;;12.60;70.56;102229.60;105879;1265;59406;-64
2023/05/26 07:18:26;;;;;;;17.00;4.60;;;;;;;12.69;69.18;102234.94;106184;1262;72823;-64
2023/05/26 07:20:52;;;;;;;16.40;4.40;;;;;;;12.75;68.89;102235.17;106227;1262;59505;-64
2023/05/26 07:23:19;;;;;;;17.70;4.50;;;;;;;12.79;67.82;102234.95;105954;1263;59463;-62
2023/05/26 07:25:46;;;;;;;14.60;3.90;;;;;;;12.82;67.54;102235.77;105804;1262;59963;-69
2023/05/26 07:28:12;;;;;;;19.90;4.30;;;;;;;12.91;68.07;102230.77;105790;1262;59556;-60
2023/05/26 07:30:39;;;;;;;18.90;4.60;;;;;;;13.03;67.52;102232.17;106145;1263;59654;-64
2023/05/26 07:33:05;;;;;;;13.10;3.80;;;;;;;13.06;66.30;102237.09;106052;1262;60837;-63
2023/05/26 07:35:32;;;;;;;16.10;3.80;;;;;;;13.03;65.73;102236.77;106021;1263;59749;-65
2023/05/26 07:37:59;;;;;;;14.30;4.00;;;;;;;13.05;65.80;102234.12;106318;1256;59634;-63
2023/05/26 07:40:25;;;;;;;12.90;3.70;;;;;;;13.09;65.68;102235.55;106463;1256;71306;-64
2023/05/26 07:42:52;;;;;;;20.00;4.80;;;;;;;13.18;65.78;102235.03;106432;1257;71751;-64
2023/05/26 07:45:18;;;;;;;16.80;4.60;;;;;;;13.31;66.10;102228.75;105980;1257;59638;-63
2023/05/26 07:47:45;;;;;;;16.20;3.90;;;;;;;13.40;64.40;102227.27;106139;1256;60106;-64
2023/05/26 07:50:13;;;;;;;20.30;4.40;;;;;;;13.51;64.32;102229.64;106212;1258;72909;-63
2023/05/26 07:52:39;;;;;;;20.40;5.40;;;;;;;13.61;64.17;102229.80;106425;1256;69631;-64
2023/05/26 07:55:06;;;;;;;18.60;5.10;;;;;;;13.69;63.37;102226.12;106192;1257;59742;-64
2023/05/26 07:57:33;;;;;;;16.20;4.10;;;;;;;13.77;62.96;102231.20;106193;1257;62383;-64
2023/05/26 07:59:59;;;;;;;30.80;15.00;;;;;;;13.78;62.07;102228.03;106264;1256;60134;-65
2023/05/26 08:02:27;;;;;;;19.90;5.30;;;;;;;13.83;62.45;102223.27;106240;1256;59718;-64
2023/05/26 08:04:53;;;;;;;18.50;4.90;;;;;;;13.94;62.31;102217.70;106560;1256;70083;-63
2023/05/26 08:07:21;;;;;;;20.80;5.60;;;;;;;14.02;62.37;102217.38;106407;1257;59838;-64
2023/05/26 08:09:47;;;;;;;14.20;4.00;;;;;;;14.05;61.56;102214.75;106278;1257;60348;-65
2023/05/26 08:12:14;;;;;;;16.10;4.60;;;;;;;14.06;61.22;102217.52;106089;1257;61806;-66
2023/05/26 08:14:40;;;;;;;17.60;4.00;;;;;;;14.09;61.62;102210.21;106339;1257;59685;-66
2023/05/26 08:17:07;;;;;;;14.60;4.10;;;;;;;14.22;61.81;102208.84;106526;1256;58362;-65
2023/05/26 08:19:35;;;;;;;17.30;4.10;;;;;;;14.41;61.51;102207.40;107096;1256;59429;-66
2023/05/26 08:22:01;;;;;;;17.40;4.20;;;;;;;14.49;59.99;102206.58;106332;1260;60404;-67
2023/05/26 08:24:28;;;;;;;16.40;4.20;;;;;;;14.58;60.59;102208.41;106192;1257;60363;-64
2023/05/26 08:26:54;;;;;;;19.30;4.20;;;;;;;14.73;60.03;102210.48;106450;1256;60332;-65
2023/05/26 08:29:22;;;;;;;13.90;3.90;;;;;;;14.80;58.91;102210.60;106325;1257;59715;-65
2023/05/26 08:31:49;;;;;;;18.90;4.90;;;;;;;14.74;57.91;102211.74;106362;1257;73126;-65
2023/05/26 08:34:17;;;;;;;19.80;6.20;;;;;;;14.70;58.26;102211.29;106267;1257;60124;-68
2023/05/26 08:36:43;;;;;;;36.50;18.40;;;;;;;14.77;58.81;102214.28;106424;1256;59745;-67
2023/05/26 08:39:10;;;;;;;16.30;4.20;;;;;;;14.87;58.25;102212.07;106393;1257;59640;-66
2023/05/26 08:42:00;;;;;;;18.90;5.80;;;;;;;14.92;56.80;102213.21;106217;1256;71068;-68
2023/05/26 08:44:28;;;;;;;17.40;4.10;;;;;;;15.01;58.14;102213.95;106539;1257;72691;-66
2023/05/26 08:46:57;;;;;;;16.60;5.10;;;;;;;15.16;57.14;102214.71;106366;1256;60703;-64
2023/05/26 08:49:24;;;;;;;18.80;3.90;;;;;;;15.24;56.54;102217.77;106419;1257;59737;-64
2023/05/26 08:52:06;;;;;;;17.10;4.80;;;;;;;15.34;57.01;102215.33;106271;1257;71522;-66
2023/05/26 08:54:33;;;;;;;29.30;11.30;;;;;;;15.50;56.64;102212.86;106442;1256;70123;-65
2023/05/26 08:57:02;;;;;;;24.30;8.00;;;;;;;15.53;55.27;102217.57;106238;1260;71755;-65
2023/05/26 08:59:29;;;;;;;22.00;4.60;;;;;;;15.38;55.47;102214.35;106211;1256;60745;-66
2023/05/26 09:01:56;;;;;;;18.70;5.90;;;;;;;15.38;56.09;102212.75;106384;1256;60387;-65
2023/05/26 09:04:24;;;;;;;14.50;4.10;;;;;;;15.52;56.31;102207.48;106357;1256;71762;-65
2023/05/26 09:06:53;;;;;;;15.50;4.00;;;;;;;15.67;55.83;102208.75;106291;1256;69973;-65
2023/05/26 09:09:40;;;;;;;13.40;3.90;;;;;;;15.79;55.40;102205.40;106341;1257;72989;-64
2023/05/26 09:12:11;;;;;;;16.60;4.30;;;;;;;15.81;55.04;102203.21;106666;1257;59854;-64
2023/05/26 09:14:39;;;;;;;18.30;4.00;;;;;;;15.87;54.75;102200.38;106379;1256;60331;-67
2023/05/26 09:17:06;;;;;;;18.20;4.90;;;;;;;15.98;55.32;102198.30;106297;1257;71842;-63
2023/05/26 09:19:33;;;;;;;15.80;3.70;;;;;;;16.02;54.14;102202.88;106509;1259;70159;-63
2023/05/26 09:22:08;;;;;;;18.40;4.40;;;;;;;15.98;53.42;102196.39;106507;1257;71310;-65
2023/05/26 09:24:47;;;;;;;18.10;4.20;;;;;;;15.89;52.81;102198.77;106042;1257;60511;-62
2023/05/26 09:27:22;;;;;;;14.60;4.00;;;;;;;15.99;53.96;102195.35;106046;1256;59756;-64
2023/05/26 09:29:54;;;;;;;18.20;4.40;;;;;;;16.09;53.02;102200.96;106537;1257;72005;-62
2023/05/26 09:32:28;;;;;;;11.90;3.40;;;;;;;16.09;52.03;102199.02;106305;1257;71198;-64
2023/05/26 09:35:05;;;;;;;15.30;4.40;;;;;;;16.02;51.13;102207.27;106182;1256;73118;-68
2023/05/26 09:37:32;;;;;;;15.50;4.00;;;;;;;16.02;50.67;102202.63;106547;1257;60169;-64
2023/05/26 09:40:16;;;;;;;15.20;3.90;;;;;;;16.10;50.74;102197.77;106324;1256;59619;-60
2023/05/26 09:42:51;;;;;;;18.30;4.00;;;;;;;16.17;50.84;102206.54;106478;1256;73130;-63
2023/05/26 09:45:17;;;;;;;18.80;4.30;;;;;;;16.27;50.78;102198.69;106244;1257;71329;-65
2023/05/26 09:47:44;;;;;;;15.00;3.70;;;;;;;16.34;49.49;102198.15;106145;1260;71875;-64
2023/05/26 09:50:11;;;;;;;11.80;3.00;;;;;;;16.47;48.47;102200.75;106134;1257;60623;-64
2023/05/26 09:52:37;;;;;;;16.10;3.40;;;;;;;16.55;48.11;102199.66;106313;1257;59797;-64
2023/05/26 09:55:04;;;;;;;14.70;3.60;;;;;;;16.67;48.48;102197.37;106558;1256;60143;-64
2023/05/26 09:57:35;;;;;;;12.90;3.30;;;;;;;16.90;48.72;102199.33;106645;1256;71188;-65
2023/05/26 10:00:09;;;;;;;13.50;3.70;;;;;;;17.04;46.80;102205.22;106477;1256;71441;-64
2023/05/26 10:02:36;;;;;;;13.30;3.40;;;;;;;17.06;45.93;102207.98;106618;1256;60454;-65
2023/05/26 10:05:05;;;;;;;13.40;3.90;;;;;;;17.03;44.77;102202.98;106242;1256;60080;-65
2023/05/26 10:07:32;;;;;;;13.20;3.10;;;;;;;17.10;45.46;102200.58;106424;1257;72905;-64
2023/05/26 10:10:00;;;;;;;12.80;2.80;;;;;;;17.08;43.05;102200.05;106447;1257;70210;-63
2023/05/26 10:12:30;;;;;;;13.40;3.50;;;;;;;17.00;43.94;102200.70;106518;1256;72565;-63
2023/05/26 10:14:57;;;;;;;11.30;3.10;;;;;;;17.05;44.32;102194.48;106571;1260;59558;-64
2023/05/26 10:17:26;;;;;;;12.90;3.60;;;;;;;17.12;44.13;102198.34;106454;1256;59791;-64
2023/05/26 10:19:58;;;;;;;14.70;3.30;;;;;;;17.22;43.92;102192.90;106425;1258;72090;-64
2023/05/26 10:22:30;;;;;;;13.20;3.30;;;;;;;17.29;43.83;102186.31;106323;1256;69661;-61
2023/05/26 10:25:11;;;;;;;12.20;3.30;;;;;;;17.48;44.38;102186.98;106545;1257;72663;-63
2023/05/26 10:27:50;;;;;;;11.80;3.30;;;;;;;17.66;43.24;102187.16;106121;1257;60600;-65
2023/05/26 10:30:20;;;;;;;11.90;3.30;;;;;;;17.63;41.63;102186.02;106370;1259;59214;-64
2023/05/26 10:33:06;;;;;;;11.60;3.20;;;;;;;17.60;42.34;102178.75;106366;1256;72860;-64
2023/05/26 10:35:33;;;;;;;9.80;2.50;;;;;;;17.64;42.05;102174.27;106084;1256;69812;-67
2023/05/26 10:38:02;;;;;;;12.20;3.10;;;;;;;17.68;42.02;102175.56;106469;1257;60889;-63
2023/05/26 10:40:35;;;;;;;11.30;2.90;;;;;;;17.88;42.99;102176.63;106293;1256;60477;-68
2023/05/26 10:43:22;;;;;;;11.10;2.80;;;;;;;18.13;41.71;102176.03;106578;1257;60448;-65
2023/05/26 10:45:55;;;;;;;10.80;3.00;;;;;;;18.41;41.52;102176.95;106529;1256;72677;-65
2023/05/26 10:48:25;;;;;;;12.40;3.40;;;;;;;18.56;40.86;102173.67;106331;1259;71091;-64
2023/05/26 10:50:55;;;;;;;14.00;3.50;;;;;;;18.46;39.43;102176.77;106157;1257;72512;-64
2023/05/26 10:53:22;;;;;;;10.50;2.70;;;;;;;18.42;40.78;102175.11;106491;1257;60476;-63
2023/05/26 10:55:58;;;;;;;10.10;2.80;;;;;;;18.45;40.58;102175.14;106356;1256;61133;-62
2023/05/26 10:58:27;;;;;;;11.00;2.80;;;;;;;18.53;39.97;102173.44;106244;1260;73917;-66
2023/05/26 11:01:02;;;;;;;10.90;2.80;;;;;;;18.58;39.96;102171.38;106294;1257;71158;-65
2023/05/26 11:03:36;;;;;;;13.90;3.50;;;;;;;18.72;40.23;102174.73;106440;1257;71493;-62
2023/05/26 11:06:07;;;;;;;12.00;2.50;;;;;;;18.73;38.93;102174.04;106120;1257;60413;-63
2023/05/26 11:08:39;;;;;;;10.00;2.70;;;;;;;18.71;38.94;102169.69;106281;1257;60795;-65
2023/05/26 11:11:08;;;;;;;13.40;3.20;;;;;;;18.76;39.65;102167.91;106367;1257;72751;-65
2023/05/26 11:13:43;;;;;;;12.30;3.00;;;;;;;18.86;39.42;102159.13;106418;1257;71421;-61
2023/05/26 11:16:18;;;;;;;10.60;2.80;;;;;;;19.01;39.04;102164.17;106336;1257;72757;-65
2023/05/26 11:19:05;;;;;;;8.30;2.40;;;;;;;19.17;38.63;102163.58;107011;1261;60799;-65